sensor_id;sensor_type;location;lat;lon;timestamp;pressure;altitude;pressure_sealevel;temperature;humidity
62038;BME280;47991;42.974;12.082;2023-02-11T00:00:59;99551.23;;;-3.41;53.86
62038;BME280;47991;42.974;12.082;2023-02-11T00:03:26;99547.81;;;-3.44;53.33
62038;BME280;47991;42.974;12.082;2023-02-11T00:06:00;99549.49;;;-3.42;52.12
62038;BME280;47991;42.974;12.082;2023-02-11T00:08:28;99550.45;;;-3.49;51.57
62038;BME280;47991;42.974;12.082;2023-02-11T00:10:55;99553.52;;;-3.68;52.78
62038;BME280;47991;42.974;12.082;2023-02-11T00:13:23;99555.14;;;-3.85;54.27
62038;BME280;47991;42.974;12.082;2023-02-11T00:15:51;99553.15;;;-3.96;54.25
62038;BME280;47991;42.974;12.082;2023-02-11T00:18:18;99557.84;;;-4.04;54.59
62038;BME280;47991;42.974;12.082;2023-02-11T00:20:45;99549.61;;;-4.06;54.03
62038;BME280;47991;42.974;12.082;2023-02-11T00:23:13;99554.29;;;-4.00;52.85
62038;BME280;47991;42.974;12.082;2023-02-11T00:25:41;99550.52;;;-4.00;54.05
62038;BME280;47991;42.974;12.082;2023-02-11T00:28:09;99551.98;;;-3.98;53.78
62038;BME280;47991;42.974;12.082;2023-02-11T00:30:37;99549.42;;;-3.91;52.46
62038;BME280;47991;42.974;12.082;2023-02-11T00:33:06;99555.16;;;-3.82;53.20
62038;BME280;47991;42.974;12.082;2023-02-11T00:35:35;99551.64;;;-3.77;53.58
62038;BME280;47991;42.974;12.082;2023-02-11T00:38:02;99554.11;;;-3.79;54.04
62038;BME280;47991;42.974;12.082;2023-02-11T00:40:31;99558.41;;;-3.80;52.34
62038;BME280;47991;42.974;12.082;2023-02-11T00:43:00;99554.23;;;-3.83;52.97
62038;BME280;47991;42.974;12.082;2023-02-11T00:45:27;99553.39;;;-3.89;53.08
62038;BME280;47991;42.974;12.082;2023-02-11T00:47:56;99548.50;;;-3.92;53.67
62038;BME280;47991;42.974;12.082;2023-02-11T00:50:24;99548.09;;;-3.94;55.01
62038;BME280;47991;42.974;12.082;2023-02-11T00:52:51;99554.88;;;-3.90;53.37
62038;BME280;47991;42.974;12.082;2023-02-11T00:55:20;99552.98;;;-3.87;54.42
62038;BME280;47991;42.974;12.082;2023-02-11T00:57:47;99552.33;;;-3.89;55.61
62038;BME280;47991;42.974;12.082;2023-02-11T01:00:16;99552.70;;;-3.89;54.61
62038;BME280;47991;42.974;12.082;2023-02-11T01:02:44;99550.25;;;-3.92;53.24
62038;BME280;47991;42.974;12.082;2023-02-11T01:05:12;99554.44;;;-4.07;54.99
62038;BME280;47991;42.974;12.082;2023-02-11T01:07:39;99549.64;;;-4.18;55.85
62038;BME280;47991;42.974;12.082;2023-02-11T01:10:06;99551.31;;;-4.28;56.92
62038;BME280;47991;42.974;12.082;2023-02-11T01:12:34;99549.95;;;-4.36;56.62
62038;BME280;47991;42.974;12.082;2023-02-11T01:15:01;99550.10;;;-4.39;56.34
62038;BME280;47991;42.974;12.082;2023-02-11T01:17:28;99547.94;;;-4.38;55.36
62038;BME280;47991;42.974;12.082;2023-02-11T01:19:55;99547.86;;;-4.34;54.84
62038;BME280;47991;42.974;12.082;2023-02-11T01:22:23;99546.44;;;-4.28;55.09
62038;BME280;47991;42.974;12.082;2023-02-11T01:24:50;99543.41;;;-4.24;55.16
62038;BME280;47991;42.974;12.082;2023-02-11T01:27:18;99541.77;;;-4.20;55.06
62038;BME280;47991;42.974;12.082;2023-02-11T01:29:45;99539.75;;;-4.19;55.99
62038;BME280;47991;42.974;12.082;2023-02-11T01:32:13;99531.42;;;-4.23;55.45
62038;BME280;47991;42.974;12.082;2023-02-11T01:34:40;99532.14;;;-4.31;55.05
62038;BME280;47991;42.974;12.082;2023-02-11T01:37:08;99530.16;;;-4.35;55.56
62038;BME280;47991;42.974;12.082;2023-02-11T01:39:35;99520.31;;;-4.35;56.78
62038;BME280;47991;42.974;12.082;2023-02-11T01:42:02;99519.41;;;-4.39;57.24
62038;BME280;47991;42.974;12.082;2023-02-11T01:44:32;99516.48;;;-4.41;57.54
62038;BME280;47991;42.974;12.082;2023-02-11T01:47:00;99512.94;;;-4.40;55.96
62038;BME280;47991;42.974;12.082;2023-02-11T01:49:41;99509.48;;;-4.43;55.72
62038;BME280;47991;42.974;12.082;2023-02-11T01:54:40;99511.62;;;-4.51;56.68
62038;BME280;47991;42.974;12.082;2023-02-11T01:57:30;99512.56;;;-4.50;57.25
62038;BME280;47991;42.974;12.082;2023-02-11T02:02:28;99506.44;;;-4.48;57.71
62038;BME280;47991;42.974;12.082;2023-02-11T02:04:59;99504.39;;;-4.48;57.90
62038;BME280;47991;42.974;12.082;2023-02-11T02:07:32;99499.46;;;-4.43;57.87
62038;BME280;47991;42.974;12.082;2023-02-11T02:10:03;99500.02;;;-4.43;60.08
62038;BME280;47991;42.974;12.082;2023-02-11T02:12:31;99501.59;;;-4.48;58.24
62038;BME280;47991;42.974;12.082;2023-02-11T02:16:01;99495.39;;;-4.57;57.58
62038;BME280;47991;42.974;12.082;2023-02-11T02:17:56;99497.45;;;-4.60;59.34
62038;BME280;47991;42.974;12.082;2023-02-11T02:41:16;99492.06;;;-4.37;56.57
62038;BME280;47991;42.974;12.082;2023-02-11T02:43:47;99494.15;;;-4.34;57.44
62038;BME280;47991;42.974;12.082;2023-02-11T02:46:16;99493.66;;;-4.34;57.53
62038;BME280;47991;42.974;12.082;2023-02-11T02:48:44;99487.70;;;-4.32;58.54
62038;BME280;47991;42.974;12.082;2023-02-11T02:51:18;99483.08;;;-4.34;58.22
62038;BME280;47991;42.974;12.082;2023-02-11T02:56:27;99479.34;;;-4.42;60.08
62038;BME280;47991;42.974;12.082;2023-02-11T03:07:21;99473.66;;;-4.14;57.43
62038;BME280;47991;42.974;12.082;2023-02-11T03:09:53;99473.98;;;-4.00;56.82
62038;BME280;47991;42.974;12.082;2023-02-11T03:12:23;99472.30;;;-3.96;56.84
62038;BME280;47991;42.974;12.082;2023-02-11T03:14:52;99469.43;;;-3.92;56.60
62038;BME280;47991;42.974;12.082;2023-02-11T03:17:19;99469.68;;;-3.90;57.34
62038;BME280;47991;42.974;12.082;2023-02-11T03:19:48;99469.83;;;-3.94;56.73
62038;BME280;47991;42.974;12.082;2023-02-11T03:22:18;99466.68;;;-3.98;56.11
62038;BME280;47991;42.974;12.082;2023-02-11T03:24:46;99469.64;;;-4.00;55.76
62038;BME280;47991;42.974;12.082;2023-02-11T03:27:17;99468.08;;;-4.18;57.79
62038;BME280;47991;42.974;12.082;2023-02-11T03:32:22;99468.73;;;-4.41;58.61
62038;BME280;47991;42.974;12.082;2023-02-11T03:34:58;99465.81;;;-4.40;55.92
62038;BME280;47991;42.974;12.082;2023-02-11T03:37:28;99465.76;;;-4.44;60.48
62038;BME280;47991;42.974;12.082;2023-02-11T03:39:59;99463.30;;;-4.39;61.38
62038;BME280;47991;42.974;12.082;2023-02-11T03:42:29;99464.70;;;-4.33;59.01
62038;BME280;47991;42.974;12.082;2023-02-11T03:45:03;99456.95;;;-4.29;57.25
62038;BME280;47991;42.974;12.082;2023-02-11T03:47:32;99455.77;;;-4.28;56.78
62038;BME280;47991;42.974;12.082;2023-02-11T03:50:02;99450.02;;;-4.32;57.48
62038;BME280;47991;42.974;12.082;2023-02-11T03:52:30;99453.02;;;-4.38;56.79
62038;BME280;47991;42.974;12.082;2023-02-11T03:54:59;99456.27;;;-4.41;56.49
62038;BME280;47991;42.974;12.082;2023-02-11T03:57:28;99457.13;;;-4.53;58.18
62038;BME280;47991;42.974;12.082;2023-02-11T03:59:56;99457.13;;;-4.62;59.75
62038;BME280;47991;42.974;12.082;2023-02-11T04:02:26;99461.80;;;-4.68;59.15
62038;BME280;47991;42.974;12.082;2023-02-11T04:04:54;99464.62;;;-4.70;60.00
62038;BME280;47991;42.974;12.082;2023-02-11T04:07:22;99464.89;;;-4.65;61.33
62038;BME280;47991;42.974;12.082;2023-02-11T04:12:41;99463.27;;;-4.69;58.37
62038;BME280;47991;42.974;12.082;2023-02-11T04:15:08;99462.68;;;-4.76;59.09
62038;BME280;47991;42.974;12.082;2023-02-11T04:17:36;99460.23;;;-4.80;60.95
62038;BME280;47991;42.974;12.082;2023-02-11T04:20:04;99459.56;;;-4.85;58.65
62038;BME280;47991;42.974;12.082;2023-02-11T04:22:31;99459.31;;;-4.90;60.45
62038;BME280;47991;42.974;12.082;2023-02-11T04:24:59;99460.03;;;-4.86;61.51
62038;BME280;47991;42.974;12.082;2023-02-11T04:27:26;99457.38;;;-4.79;61.51
62038;BME280;47991;42.974;12.082;2023-02-11T04:29:53;99455.58;;;-4.73;60.57
62038;BME280;47991;42.974;12.082;2023-02-11T04:32:20;99452.89;;;-4.69;61.41
62038;BME280;47991;42.974;12.082;2023-02-11T04:34:47;99454.29;;;-4.63;61.56
62038;BME280;47991;42.974;12.082;2023-02-11T04:37:15;99456.06;;;-4.68;59.27
62038;BME280;47991;42.974;12.082;2023-02-11T04:39:42;99457.20;;;-4.78;59.43
62038;BME280;47991;42.974;12.082;2023-02-11T04:42:11;99458.05;;;-4.81;59.28
62038;BME280;47991;42.974;12.082;2023-02-11T04:44:39;99457.48;;;-4.79;60.74
62038;BME280;47991;42.974;12.082;2023-02-11T04:47:07;99459.09;;;-4.75;61.61
62038;BME280;47991;42.974;12.082;2023-02-11T04:49:35;99459.88;;;-4.77;61.54
62038;BME280;47991;42.974;12.082;2023-02-11T04:52:02;99459.94;;;-4.78;61.21
62038;BME280;47991;42.974;12.082;2023-02-11T04:54:31;99461.14;;;-4.76;61.16
62038;BME280;47991;42.974;12.082;2023-02-11T04:56:58;99463.26;;;-4.72;60.64
62038;BME280;47991;42.974;12.082;2023-02-11T04:59:25;99460.26;;;-4.73;58.68
62038;BME280;47991;42.974;12.082;2023-02-11T05:01:52;99461.91;;;-4.77;60.60
62038;BME280;47991;42.974;12.082;2023-02-11T05:04:20;99464.29;;;-4.81;61.93
62038;BME280;47991;42.974;12.082;2023-02-11T05:06:47;99468.73;;;-4.79;58.56
62038;BME280;47991;42.974;12.082;2023-02-11T05:09:14;99478.31;;;-4.71;59.16
62038;BME280;47991;42.974;12.082;2023-02-11T05:11:42;99480.23;;;-4.65;59.11
62038;BME280;47991;42.974;12.082;2023-02-11T05:14:09;99484.58;;;-4.56;59.50
62038;BME280;47991;42.974;12.082;2023-02-11T05:16:37;99484.63;;;-4.46;59.89
62038;BME280;47991;42.974;12.082;2023-02-11T05:19:04;99487.27;;;-4.33;60.03
62038;BME280;47991;42.974;12.082;2023-02-11T05:21:31;99483.34;;;-4.24;60.25
62038;BME280;47991;42.974;12.082;2023-02-11T05:23:58;99484.79;;;-4.22;59.22
62038;BME280;47991;42.974;12.082;2023-02-11T05:26:26;99484.01;;;-4.27;59.10
62038;BME280;47991;42.974;12.082;2023-02-11T05:28:53;99481.92;;;-4.33;60.16
62038;BME280;47991;42.974;12.082;2023-02-11T05:31:20;99480.24;;;-4.39;60.51
62038;BME280;47991;42.974;12.082;2023-02-11T05:33:48;99476.66;;;-4.44;60.06
62038;BME280;47991;42.974;12.082;2023-02-11T05:36:15;99476.98;;;-4.47;62.29
62038;BME280;47991;42.974;12.082;2023-02-11T05:38:42;99476.70;;;-4.46;61.50
62038;BME280;47991;42.974;12.082;2023-02-11T05:41:11;99480.42;;;-4.41;60.20
62038;BME280;47991;42.974;12.082;2023-02-11T05:43:38;99479.64;;;-4.37;60.47
62038;BME280;47991;42.974;12.082;2023-02-11T05:46:06;99475.29;;;-4.37;61.04
62038;BME280;47991;42.974;12.082;2023-02-11T05:48:33;99478.32;;;-4.42;61.17
62038;BME280;47991;42.974;12.082;2023-02-11T05:51:00;99479.45;;;-4.52;61.81
62038;BME280;47991;42.974;12.082;2023-02-11T05:53:28;99482.70;;;-4.67;61.45
62038;BME280;47991;42.974;12.082;2023-02-11T05:58:50;99483.11;;;-4.89;62.21
62038;BME280;47991;42.974;12.082;2023-02-11T06:01:18;99483.79;;;-4.92;61.34
62038;BME280;47991;42.974;12.082;2023-02-11T06:03:45;99487.13;;;-4.91;61.52
62038;BME280;47991;42.974;12.082;2023-02-11T06:06:12;99494.35;;;-4.92;61.63
62038;BME280;47991;42.974;12.082;2023-02-11T06:08:39;99495.67;;;-4.93;60.26
62038;BME280;47991;42.974;12.082;2023-02-11T06:11:07;99498.52;;;-4.94;59.61
62038;BME280;47991;42.974;12.082;2023-02-11T06:13:34;99495.39;;;-4.95;59.00
62038;BME280;47991;42.974;12.082;2023-02-11T06:16:02;99501.26;;;-4.98;60.51
62038;BME280;47991;42.974;12.082;2023-02-11T06:18:29;99502.98;;;-4.95;61.74
62038;BME280;47991;42.974;12.082;2023-02-11T06:20:59;99501.70;;;-4.90;61.44
62038;BME280;47991;42.974;12.082;2023-02-11T06:23:28;99497.00;;;-4.88;62.75
62038;BME280;47991;42.974;12.082;2023-02-11T06:25:59;99498.52;;;-4.83;61.37
62038;BME280;47991;42.974;12.082;2023-02-11T06:28:27;99497.23;;;-4.78;61.80
62038;BME280;47991;42.974;12.082;2023-02-11T06:30:55;99500.25;;;-4.74;62.66
62038;BME280;47991;42.974;12.082;2023-02-11T06:33:22;99506.64;;;-4.68;62.56
62038;BME280;47991;42.974;12.082;2023-02-11T06:35:50;99513.64;;;-4.58;61.21
62038;BME280;47991;42.974;12.082;2023-02-11T06:38:17;99511.19;;;-4.44;61.34
62038;BME280;47991;42.974;12.082;2023-02-11T06:40:47;99510.05;;;-4.37;61.68
62038;BME280;47991;42.974;12.082;2023-02-11T06:43:15;99510.89;;;-4.31;62.21
62038;BME280;47991;42.974;12.082;2023-02-11T06:45:43;99513.52;;;-4.15;61.58
62038;BME280;47991;42.974;12.082;2023-02-11T06:48:10;99515.69;;;-3.52;62.16
62038;BME280;47991;42.974;12.082;2023-02-11T06:50:39;99511.95;;;-2.60;61.27
62038;BME280;47991;42.974;12.082;2023-02-11T06:53:06;99513.99;;;-2.30;59.64
62038;BME280;47991;42.974;12.082;2023-02-11T06:55:33;99514.52;;;-2.23;59.70
62038;BME280;47991;42.974;12.082;2023-02-11T06:58:01;99518.16;;;-2.23;59.11
62038;BME280;47991;42.974;12.082;2023-02-11T07:00:28;99517.78;;;-2.17;59.06
62038;BME280;47991;42.974;12.082;2023-02-11T07:02:56;99521.77;;;-2.24;59.20
62038;BME280;47991;42.974;12.082;2023-02-11T07:05:24;99523.65;;;-2.35;60.18
62038;BME280;47991;42.974;12.082;2023-02-11T07:07:52;99525.45;;;-2.33;60.16
62038;BME280;47991;42.974;12.082;2023-02-11T07:10:19;99530.62;;;-2.13;60.19
62038;BME280;47991;42.974;12.082;2023-02-11T07:12:47;99529.31;;;-1.98;60.10
62038;BME280;47991;42.974;12.082;2023-02-11T07:15:14;99529.48;;;-1.95;60.47
62038;BME280;47991;42.974;12.082;2023-02-11T07:17:41;99531.08;;;-1.94;59.92
62038;BME280;47991;42.974;12.082;2023-02-11T07:20:09;99533.15;;;-1.83;59.81
62038;BME280;47991;42.974;12.082;2023-02-11T07:22:38;99532.13;;;-1.65;59.62
62038;BME280;47991;42.974;12.082;2023-02-11T07:25:05;99529.66;;;-1.47;60.69
62038;BME280;47991;42.974;12.082;2023-02-11T07:27:33;99528.62;;;-1.37;60.16
62038;BME280;47991;42.974;12.082;2023-02-11T07:30:00;99531.13;;;-1.31;59.42
62038;BME280;47991;42.974;12.082;2023-02-11T07:32:27;99532.55;;;-1.23;59.15
62038;BME280;47991;42.974;12.082;2023-02-11T07:34:55;99534.19;;;-1.10;59.62
62038;BME280;47991;42.974;12.082;2023-02-11T07:37:22;99537.77;;;-0.93;59.02
62038;BME280;47991;42.974;12.082;2023-02-11T07:39:49;99536.84;;;-0.71;58.97
62038;BME280;47991;42.974;12.082;2023-02-11T07:42:16;99533.59;;;-0.54;58.96
62038;BME280;47991;42.974;12.082;2023-02-11T07:44:44;99536.48;;;-0.40;58.78
62038;BME280;47991;42.974;12.082;2023-02-11T07:47:12;99536.81;;;-0.24;57.90
62038;BME280;47991;42.974;12.082;2023-02-11T07:49:39;99535.26;;;-0.11;57.85
62038;BME280;47991;42.974;12.082;2023-02-11T07:52:07;99539.14;;;0.02;57.66
62038;BME280;47991;42.974;12.082;2023-02-11T07:54:34;99542.07;;;0.23;57.34
62038;BME280;47991;42.974;12.082;2023-02-11T07:57:01;99541.69;;;0.39;58.10
62038;BME280;47991;42.974;12.082;2023-02-11T07:59:28;99540.77;;;0.60;57.21
62038;BME280;47991;42.974;12.082;2023-02-11T08:01:55;99534.64;;;0.77;56.49
62038;BME280;47991;42.974;12.082;2023-02-11T08:04:23;99531.86;;;0.95;56.06
62038;BME280;47991;42.974;12.082;2023-02-11T08:06:52;99530.71;;;1.15;56.25
62038;BME280;47991;42.974;12.082;2023-02-11T08:09:22;99529.70;;;1.30;58.59
62038;BME280;47991;42.974;12.082;2023-02-11T08:11:49;99529.69;;;1.40;58.67
62038;BME280;47991;42.974;12.082;2023-02-11T08:14:16;99527.08;;;1.59;57.18
62038;BME280;47991;42.974;12.082;2023-02-11T08:16:43;99525.63;;;1.77;55.33
62038;BME280;47991;42.974;12.082;2023-02-11T08:19:12;99527.02;;;1.92;55.32
62038;BME280;47991;42.974;12.082;2023-02-11T08:21:40;99525.08;;;2.12;55.43
62038;BME280;47991;42.974;12.082;2023-02-11T08:24:08;99524.64;;;2.25;54.88
62038;BME280;47991;42.974;12.082;2023-02-11T08:26:36;99526.02;;;2.25;54.61
62038;BME280;47991;42.974;12.082;2023-02-11T08:29:06;99526.36;;;2.24;54.96
62038;BME280;47991;42.974;12.082;2023-02-11T08:31:36;99528.65;;;2.19;53.97
62038;BME280;47991;42.974;12.082;2023-02-11T08:34:04;99527.30;;;2.00;53.89
62038;BME280;47991;42.974;12.082;2023-02-11T08:36:32;99528.91;;;1.96;53.73
62038;BME280;47991;42.974;12.082;2023-02-11T08:39:03;99529.05;;;2.16;53.31
62038;BME280;47991;42.974;12.082;2023-02-11T08:41:31;99529.71;;;2.25;52.85
62038;BME280;47991;42.974;12.082;2023-02-11T08:43:59;99533.45;;;2.22;52.67
62038;BME280;47991;42.974;12.082;2023-02-11T08:46:27;99535.30;;;2.31;52.66
62038;BME280;47991;42.974;12.082;2023-02-11T08:48:54;99541.48;;;2.22;52.42
62038;BME280;47991;42.974;12.082;2023-02-11T08:51:22;99538.88;;;2.28;52.33
62038;BME280;47991;42.974;12.082;2023-02-11T08:53:50;99538.96;;;2.25;52.40
62038;BME280;47991;42.974;12.082;2023-02-11T08:56:17;99539.21;;;2.33;53.98
62038;BME280;47991;42.974;12.082;2023-02-11T08:58:45;99531.39;;;2.67;53.76
62038;BME280;47991;42.974;12.082;2023-02-11T09:01:14;99538.27;;;2.91;54.58
62038;BME280;47991;42.974;12.082;2023-02-11T09:03:41;99541.21;;;3.25;53.41
62038;BME280;47991;42.974;12.082;2023-02-11T09:06:09;99538.12;;;3.84;50.95
62038;BME280;47991;42.974;12.082;2023-02-11T09:08:37;99534.80;;;4.82;49.09
62038;BME280;47991;42.974;12.082;2023-02-11T09:11:05;99536.02;;;5.22;47.08
62038;BME280;47991;42.974;12.082;2023-02-11T09:13:33;99527.41;;;6.61;43.44
62038;BME280;47991;42.974;12.082;2023-02-11T09:16:01;99529.44;;;6.45;43.99
62038;BME280;47991;42.974;12.082;2023-02-11T09:18:28;99536.09;;;5.85;45.36
62038;BME280;47991;42.974;12.082;2023-02-11T09:21:06;99530.19;;;5.27;45.73
62038;BME280;47991;42.974;12.082;2023-02-11T09:23:33;99523.65;;;5.01;46.40
62038;BME280;47991;42.974;12.082;2023-02-11T09:26:05;99525.30;;;4.59;46.16
62038;BME280;47991;42.974;12.082;2023-02-11T09:28:32;99526.88;;;4.43;47.36
62038;BME280;47991;42.974;12.082;2023-02-11T09:31:09;99525.95;;;4.56;47.34
62038;BME280;47991;42.974;12.082;2023-02-11T09:33:38;99527.23;;;5.30;47.40
62038;BME280;47991;42.974;12.082;2023-02-11T09:36:08;99530.22;;;5.54;46.00
62038;BME280;47991;42.974;12.082;2023-02-11T09:38:35;99529.52;;;5.55;46.61
62038;BME280;47991;42.974;12.082;2023-02-11T09:41:02;99533.59;;;5.65;45.35
62038;BME280;47991;42.974;12.082;2023-02-11T09:43:37;99531.89;;;6.34;45.36
62038;BME280;47991;42.974;12.082;2023-02-11T09:46:11;99534.89;;;6.56;43.95
62038;BME280;47991;42.974;12.082;2023-02-11T09:48:41;99538.64;;;6.38;44.37
62038;BME280;47991;42.974;12.082;2023-02-11T09:51:18;99536.52;;;6.28;43.12
62038;BME280;47991;42.974;12.082;2023-02-11T09:53:46;99537.49;;;6.22;42.71
62038;BME280;47991;42.974;12.082;2023-02-11T09:56:17;99542.69;;;6.18;41.95
62038;BME280;47991;42.974;12.082;2023-02-11T09:58:44;99544.55;;;6.15;42.96
62038;BME280;47991;42.974;12.082;2023-02-11T10:04:17;99539.50;;;6.27;41.56
62038;BME280;47991;42.974;12.082;2023-02-11T10:07:01;99529.94;;;7.02;40.23
62038;BME280;47991;42.974;12.082;2023-02-11T10:09:44;99523.90;;;9.45;36.29
62038;BME280;47991;42.974;12.082;2023-02-11T10:17:59;99517.70;;;11.84;29.60
62038;BME280;47991;42.974;12.082;2023-02-11T10:22:51;99518.17;;;11.98;31.23
62038;BME280;47991;42.974;12.082;2023-02-11T10:25:21;99517.13;;;11.53;29.46
62038;BME280;47991;42.974;12.082;2023-02-11T10:27:49;99515.10;;;11.23;29.60
62038;BME280;47991;42.974;12.082;2023-02-11T10:33:05;99521.27;;;9.79;30.35
62038;BME280;47991;42.974;12.082;2023-02-11T10:35:37;99526.62;;;9.12;30.17
62038;BME280;47991;42.974;12.082;2023-02-11T10:38:04;99527.40;;;8.95;31.08
62038;BME280;47991;42.974;12.082;2023-02-11T10:40:32;99528.44;;;8.66;30.21
62038;BME280;47991;42.974;12.082;2023-02-11T10:43:00;99530.91;;;8.68;31.90
62038;BME280;47991;42.974;12.082;2023-02-11T10:48:00;99536.05;;;8.50;31.28
62038;BME280;47991;42.974;12.082;2023-02-11T10:50:28;99539.06;;;8.52;32.24
62038;BME280;47991;42.974;12.082;2023-02-11T10:53:15;99537.34;;;8.38;32.13
62038;BME280;47991;42.974;12.082;2023-02-11T10:55:52;99534.41;;;8.27;32.65
62038;BME280;47991;42.974;12.082;2023-02-11T10:58:23;99535.23;;;8.19;32.16
62038;BME280;47991;42.974;12.082;2023-02-11T11:00:51;99527.72;;;8.09;32.97
62038;BME280;47991;42.974;12.082;2023-02-11T11:03:22;99526.31;;;8.10;33.29
62038;BME280;47991;42.974;12.082;2023-02-11T11:05:50;99518.05;;;8.30;34.06
62038;BME280;47991;42.974;12.082;2023-02-11T11:08:18;99512.95;;;8.48;33.11
62038;BME280;47991;42.974;12.082;2023-02-11T11:10:46;99511.80;;;8.57;32.56
62038;BME280;47991;42.974;12.082;2023-02-11T11:18:41;99499.23;;;8.75;30.96
62038;BME280;47991;42.974;12.082;2023-02-11T11:23:39;99483.90;;;8.77;30.15
62038;BME280;47991;42.974;12.082;2023-02-11T11:26:13;99480.70;;;8.74;29.22
62038;BME280;47991;42.974;12.082;2023-02-11T11:31:14;99468.67;;;8.97;30.32
62038;BME280;47991;42.974;12.082;2023-02-11T11:33:44;99463.98;;;9.55;30.55
62038;BME280;47991;42.974;12.082;2023-02-11T11:36:14;99459.61;;;9.76;30.67
62038;BME280;47991;42.974;12.082;2023-02-11T11:38:44;99449.39;;;9.97;30.38
62038;BME280;47991;42.974;12.082;2023-02-11T11:41:31;99451.34;;;10.72;28.83
62038;BME280;47991;42.974;12.082;2023-02-11T11:44:01;99446.47;;;11.08;27.28
62038;BME280;47991;42.974;12.082;2023-02-11T11:46:30;99444.83;;;10.58;27.94
62038;BME280;47991;42.974;12.082;2023-02-11T11:49:16;99445.71;;;10.27;28.90
62038;BME280;47991;42.974;12.082;2023-02-11T11:52:34;99442.52;;;10.01;29.08
62038;BME280;47991;42.974;12.082;2023-02-11T11:54:34;99440.40;;;10.19;29.63
62038;BME280;47991;42.974;12.082;2023-02-11T11:57:04;99435.64;;;10.30;28.11
62038;BME280;47991;42.974;12.082;2023-02-11T11:59:37;99436.07;;;10.96;26.44
62038;BME280;47991;42.974;12.082;2023-02-11T12:02:17;99433.83;;;10.81;25.65
62038;BME280;47991;42.974;12.082;2023-02-11T12:07:25;99429.01;;;10.92;25.99
62038;BME280;47991;42.974;12.082;2023-02-11T12:10:30;99424.72;;;11.03;26.63
62038;BME280;47991;42.974;12.082;2023-02-11T12:15:36;99419.64;;;10.88;26.23
62038;BME280;47991;42.974;12.082;2023-02-11T12:26:20;99421.04;;;10.89;25.87
62038;BME280;47991;42.974;12.082;2023-02-11T12:28:52;99421.83;;;10.66;26.88
62038;BME280;47991;42.974;12.082;2023-02-11T12:31:28;99418.83;;;10.55;26.92
62038;BME280;47991;42.974;12.082;2023-02-11T12:34:04;99413.83;;;10.79;28.48
62038;BME280;47991;42.974;12.082;2023-02-11T12:55:19;99381.45;;;11.82;27.80
62038;BME280;47991;42.974;12.082;2023-02-11T12:57:49;99376.79;;;12.32;26.48
62038;BME280;47991;42.974;12.082;2023-02-11T13:00:18;99371.05;;;11.99;25.40
62038;BME280;47991;42.974;12.082;2023-02-11T13:05:33;99366.38;;;11.82;26.33
62038;BME280;47991;42.974;12.082;2023-02-11T13:10:39;99365.14;;;11.81;25.81
62038;BME280;47991;42.974;12.082;2023-02-11T13:15:55;99367.63;;;12.25;26.89
62038;BME280;47991;42.974;12.082;2023-02-11T13:21:51;99365.52;;;12.75;25.06
62038;BME280;47991;42.974;12.082;2023-02-11T13:24:25;99361.17;;;13.25;23.34
62038;BME280;47991;42.974;12.082;2023-02-11T13:26:46;99354.06;;;13.40;23.59
62038;BME280;47991;42.974;12.082;2023-02-11T13:31:54;99351.57;;;13.26;22.81
62038;BME280;47991;42.974;12.082;2023-02-11T13:35:24;99349.98;;;13.25;22.40
62038;BME280;47991;42.974;12.082;2023-02-11T13:42:25;99346.09;;;13.51;22.68
62038;BME280;47991;42.974;12.082;2023-02-11T13:44:53;99341.16;;;13.47;22.72
62038;BME280;47991;42.974;12.082;2023-02-11T13:47:33;99343.98;;;13.49;23.93
62038;BME280;47991;42.974;12.082;2023-02-11T13:50:04;99346.09;;;13.51;24.70
62038;BME280;47991;42.974;12.082;2023-02-11T13:52:35;99348.44;;;13.72;26.03
62038;BME280;47991;42.974;12.082;2023-02-11T13:55:21;99342.37;;;13.84;24.59
62038;BME280;47991;42.974;12.082;2023-02-11T14:22:17;99336.64;;;14.08;22.31
62038;BME280;47991;42.974;12.082;2023-02-11T14:24:47;99338.40;;;14.29;23.30
62038;BME280;47991;42.974;12.082;2023-02-11T14:27:17;99337.85;;;14.39;19.62
62038;BME280;47991;42.974;12.082;2023-02-11T14:34:58;99335.25;;;14.25;21.19
62038;BME280;47991;42.974;12.082;2023-02-11T14:37:32;99334.97;;;14.11;22.05
62038;BME280;47991;42.974;12.082;2023-02-11T14:42:34;99330.03;;;13.43;22.16
62038;BME280;47991;42.974;12.082;2023-02-11T14:45:04;99328.14;;;13.51;22.17
62038;BME280;47991;42.974;12.082;2023-02-11T14:47:44;99330.39;;;13.65;22.80
62038;BME280;47991;42.974;12.082;2023-02-11T14:50:18;99331.11;;;13.65;21.75
62038;BME280;47991;42.974;12.082;2023-02-11T14:52:46;99328.13;;;13.39;21.38
62038;BME280;47991;42.974;12.082;2023-02-11T14:57:41;99322.69;;;13.07;23.37
62038;BME280;47991;42.974;12.082;2023-02-11T15:00:15;99320.59;;;12.90;22.73
62038;BME280;47991;42.974;12.082;2023-02-11T15:02:43;99322.29;;;12.84;24.18
62038;BME280;47991;42.974;12.082;2023-02-11T15:05:15;99320.04;;;12.79;23.32
62038;BME280;47991;42.974;12.082;2023-02-11T15:07:46;99322.38;;;12.77;22.58
62038;BME280;47991;42.974;12.082;2023-02-11T15:10:36;99316.54;;;12.73;22.45
62038;BME280;47991;42.974;12.082;2023-02-11T15:13:02;99312.40;;;12.65;22.68
62038;BME280;47991;42.974;12.082;2023-02-11T15:15:31;99313.04;;;12.54;23.10
62038;BME280;47991;42.974;12.082;2023-02-11T15:18:00;99308.86;;;12.48;23.13
62038;BME280;47991;42.974;12.082;2023-02-11T15:20:30;99303.11;;;12.40;23.63
62038;BME280;47991;42.974;12.082;2023-02-11T15:22:58;99299.77;;;12.36;23.15
62038;BME280;47991;42.974;12.082;2023-02-11T15:25:26;99302.09;;;12.35;23.25
62038;BME280;47991;42.974;12.082;2023-02-11T15:27:55;99299.45;;;12.34;23.23
62038;BME280;47991;42.974;12.082;2023-02-11T15:30:27;99300.89;;;12.31;23.46
62038;BME280;47991;42.974;12.082;2023-02-11T15:32:56;99303.47;;;12.21;24.52
62038;BME280;47991;42.974;12.082;2023-02-11T15:35:30;99302.80;;;12.19;22.86
62038;BME280;47991;42.974;12.082;2023-02-11T15:37:58;99303.91;;;12.13;22.67
62038;BME280;47991;42.974;12.082;2023-02-11T15:40:27;99303.42;;;12.09;22.99
62038;BME280;47991;42.974;12.082;2023-02-11T15:48:22;99300.82;;;11.60;25.58